createdAt,value
2019-05-26T00:00:14.663Z,95.10
2019-05-26T00:02:41.902Z,94.80
2019-05-26T00:05:09.349Z,95.10
2019-05-26T00:07:36.814Z,95.50
2019-05-26T00:10:04.585Z,95.30
2019-05-26T00:12:32.557Z,95.00
2019-05-26T00:14:59.887Z,95.20
2019-05-26T00:17:27.122Z,94.80
2019-05-26T00:19:54.345Z,94.90
2019-05-26T00:22:21.646Z,95.30
2019-05-26T00:24:48.889Z,95.00
2019-05-26T00:27:17.391Z,95.20
2019-05-26T00:29:44.772Z,95.50
2019-05-26T00:32:12.401Z,95.60
2019-05-26T00:34:39.760Z,95.60
2019-05-26T00:37:07.022Z,95.50
2019-05-26T00:39:34.353Z,95.20
2019-05-26T00:42:03.657Z,95.20
2019-05-26T00:44:30.851Z,94.90
2019-05-26T00:46:58.084Z,95.00
2019-05-26T00:49:25.481Z,95.10
2019-05-26T00:51:52.849Z,95.00
2019-05-26T00:54:20.179Z,94.90
2019-05-26T00:56:47.416Z,94.90
2019-05-26T00:59:14.860Z,95.00
2019-05-26T01:01:42.133Z,95.00
2019-05-26T01:04:09.588Z,95.00
2019-05-26T01:06:36.916Z,95.00
2019-05-26T01:09:06.352Z,95.00
2019-05-26T01:11:33.756Z,94.90
2019-05-26T01:14:10.437Z,95.20
2019-05-26T01:16:37.872Z,95.00
2019-05-26T01:19:05.195Z,95.00
2019-05-26T01:21:32.831Z,94.80
2019-05-26T01:24:00.048Z,95.00
2019-05-26T01:26:27.427Z,95.00
2019-05-26T01:28:54.774Z,95.20
2019-05-26T01:31:22.167Z,95.30
2019-05-26T01:33:50.668Z,95.40
2019-05-26T01:36:18.329Z,95.70
2019-05-26T01:38:45.870Z,96.10
2019-05-26T01:41:13.083Z,95.30
2019-05-26T01:43:40.303Z,96.00
2019-05-26T01:46:07.734Z,95.60
2019-05-26T01:48:35.139Z,95.40
2019-05-26T01:51:02.391Z,95.60
2019-05-26T01:53:29.775Z,95.50
2019-05-26T01:55:57.018Z,95.60
2019-05-26T01:58:25.381Z,95.60
2019-05-26T02:00:52.863Z,95.50
2019-05-26T02:03:20.079Z,95.50
2019-05-26T02:05:47.463Z,95.70
2019-05-26T02:08:14.670Z,95.80
2019-05-26T02:10:42.020Z,95.70
2019-05-26T02:13:09.388Z,95.50
2019-05-26T02:15:36.793Z,95.50
2019-05-26T02:18:04.640Z,95.60
2019-05-26T02:20:31.952Z,95.40
2019-05-26T02:22:59.089Z,95.30
2019-05-26T02:25:26.312Z,95.60
2019-05-26T02:27:53.543Z,95.50
2019-05-26T02:30:20.899Z,95.60
2019-05-26T02:32:48.318Z,95.30
2019-05-26T02:35:15.771Z,95.40
2019-05-26T02:37:43.304Z,95.00
2019-05-26T02:40:10.828Z,95.30
2019-05-26T02:42:38.375Z,95.20
2019-05-26T02:45:06.895Z,95.20
2019-05-26T02:47:34.243Z,95.20
2019-05-26T02:50:01.587Z,95.30
2019-05-26T02:52:29.036Z,95.50
2019-05-26T02:54:56.427Z,95.60
2019-05-26T02:57:23.807Z,95.90
2019-05-26T02:59:51.130Z,95.50
2019-05-26T03:02:18.506Z,95.20
2019-05-26T03:04:45.855Z,95.20
2019-05-26T03:07:13.895Z,95.50
2019-05-26T03:09:42.951Z,95.40
2019-05-26T03:12:10.191Z,95.30
2019-05-26T03:14:41.602Z,95.40
2019-05-26T03:17:09.074Z,95.30
2019-05-26T03:19:39.098Z,95.50
2019-05-26T03:22:06.579Z,95.20
2019-05-26T03:24:34.029Z,95.30
2019-05-26T03:27:01.444Z,95.30
2019-05-26T03:29:28.791Z,95.20
2019-05-26T03:31:56.031Z,94.90
2019-05-26T03:34:23.759Z,95.20
2019-05-26T03:36:51.025Z,95.20
2019-05-26T03:39:18.419Z,95.20
2019-05-26T03:41:45.773Z,95.30
2019-05-26T03:44:13.111Z,95.40
2019-05-26T03:46:40.466Z,95.40
2019-05-26T03:49:07.803Z,95.60
2019-05-26T03:51:35.150Z,95.70
2019-05-26T03:54:02.466Z,95.70
2019-05-26T03:56:29.930Z,95.60
2019-05-26T03:58:57.456Z,95.90
2019-05-26T04:01:24.806Z,96.00
2019-05-26T04:03:52.551Z,95.70
2019-05-26T04:06:19.923Z,95.60
2019-05-26T04:08:47.305Z,95.80
2019-05-26T04:11:14.911Z,95.90
2019-05-26T04:13:42.296Z,95.90
2019-05-26T04:16:09.631Z,95.80
2019-05-26T04:18:37.276Z,95.90
2019-05-26T04:21:04.666Z,95.80
2019-05-26T04:23:31.935Z,95.90
2019-05-26T04:25:59.201Z,95.80
2019-05-26T04:28:26.452Z,96.00
2019-05-26T04:30:53.841Z,96.10
2019-05-26T04:33:21.122Z,96.00
2019-05-26T04:35:48.513Z,96.10
2019-05-26T04:38:16.867Z,96.20
2019-05-26T04:40:44.203Z,96.30
2019-05-26T04:43:14.638Z,96.30
2019-05-26T04:45:40.565Z,96.20
2019-05-26T04:48:07.917Z,96.00
2019-05-26T04:50:35.583Z,96.50
2019-05-26T04:53:06.596Z,96.30
2019-05-26T04:55:32.274Z,96.20
2019-05-26T04:57:59.489Z,96.40
2019-05-26T05:00:26.901Z,96.50
2019-05-26T05:02:53.943Z,96.50
2019-05-26T05:05:21.257Z,96.60
2019-05-26T05:07:48.596Z,96.40
2019-05-26T05:10:16.038Z,96.60
2019-05-26T05:12:43.686Z,96.70
2019-05-26T05:15:11.574Z,97.10
2019-05-26T05:17:38.677Z,96.90
2019-05-26T05:20:06.271Z,97.00
2019-05-26T05:22:33.622Z,97.30
2019-05-26T05:25:00.946Z,97.50
2019-05-26T05:27:28.243Z,97.90
2019-05-26T05:29:55.527Z,97.70
2019-05-26T05:32:22.854Z,97.50
2019-05-26T05:34:50.033Z,97.70
2019-05-26T05:37:17.481Z,97.20
2019-05-26T05:39:45.169Z,96.90
2019-05-26T05:42:12.659Z,96.30
2019-05-26T05:44:39.969Z,96.50
2019-05-26T05:47:07.341Z,96.00
2019-05-26T05:49:34.601Z,96.00
2019-05-26T05:52:01.810Z,96.50
2019-05-26T05:54:29.064Z,96.00
2019-05-26T05:56:56.825Z,95.60
2019-05-26T05:59:24.177Z,95.10
2019-05-26T06:01:51.333Z,94.50
2019-05-26T06:04:18.514Z,94.20
2019-05-26T06:06:45.693Z,94.40
2019-05-26T06:09:13.105Z,94.80
2019-05-26T06:11:40.267Z,94.80
2019-05-26T06:14:07.525Z,94.30
2019-05-26T06:16:34.782Z,94.30
2019-05-26T06:19:02.216Z,93.40
2019-05-26T06:21:29.565Z,93.40
2019-05-26T06:23:56.709Z,92.80
2019-05-26T06:26:23.916Z,92.70
2019-05-26T06:28:52.415Z,93.00
2019-05-26T06:31:20.112Z,92.50
2019-05-26T06:33:47.554Z,92.70
2019-05-26T06:36:14.869Z,92.70
2019-05-26T06:38:42.079Z,92.50
2019-05-26T06:41:10.421Z,91.50
2019-05-26T06:43:37.805Z,91.70
2019-05-26T06:46:05.160Z,91.70
2019-05-26T06:48:32.525Z,90.40
2019-05-26T06:50:59.776Z,89.40
2019-05-26T06:53:27.102Z,89.30
2019-05-26T06:55:55.325Z,89.00
2019-05-26T06:58:22.838Z,89.60
2019-05-26T07:00:49.969Z,89.20
2019-05-26T07:03:17.124Z,88.60
2019-05-26T07:05:44.386Z,88.10
2019-05-26T07:08:11.756Z,88.20
2019-05-26T07:10:39.111Z,87.20
2019-05-26T07:13:06.732Z,87.40
2019-05-26T07:15:34.015Z,86.30
2019-05-26T07:18:01.372Z,85.60
2019-05-26T07:20:28.548Z,85.20
2019-05-26T07:22:55.930Z,86.30
2019-05-26T07:25:23.254Z,85.30
2019-05-26T07:27:50.569Z,84.30
2019-05-26T07:30:18.335Z,84.30
2019-05-26T07:32:45.577Z,84.80
2019-05-26T07:35:13.693Z,84.10
2019-05-26T07:37:40.960Z,82.40
2019-05-26T07:40:08.478Z,82.40
2019-05-26T07:42:35.647Z,81.70
2019-05-26T07:45:03.264Z,80.60
2019-05-26T07:47:31.597Z,80.80
2019-05-26T07:49:59.049Z,79.90
2019-05-26T07:52:26.134Z,80.10
2019-05-26T07:54:53.382Z,79.60
2019-05-26T07:57:20.742Z,80.50
2019-05-26T07:59:47.951Z,78.50
2019-05-26T08:02:15.162Z,78.40
2019-05-26T08:04:42.600Z,77.10
2019-05-26T08:07:09.870Z,78.60
2019-05-26T08:09:37.503Z,79.00
2019-05-26T08:12:05.718Z,78.30
2019-05-26T08:14:32.937Z,77.90
2019-05-26T08:17:00.311Z,79.40
2019-05-26T08:19:27.653Z,78.80
2019-05-26T08:21:55.355Z,78.30
2019-05-26T08:24:22.593Z,78.50
2019-05-26T08:26:49.992Z,78.10
2019-05-26T08:29:17.383Z,78.70
2019-05-26T08:31:44.759Z,77.90
2019-05-26T08:34:12.150Z,78.00
2019-05-26T08:36:39.807Z,78.20
2019-05-26T08:39:07.632Z,78.30
2019-05-26T08:41:35.045Z,77.80
2019-05-26T08:44:02.248Z,71.70
2019-05-26T08:46:29.475Z,73.20
2019-05-26T08:48:56.768Z,72.70
2019-05-26T08:51:25.275Z,71.30
2019-05-26T08:53:52.737Z,68.40
2019-05-26T08:56:19.885Z,68.50
2019-05-26T08:58:47.255Z,71.30
2019-05-26T09:01:14.426Z,71.70
2019-05-26T09:03:41.694Z,71.00
2019-05-26T09:06:09.174Z,71.60
2019-05-26T09:08:36.542Z,71.60
2019-05-26T09:11:03.874Z,70.90
2019-05-26T09:13:31.253Z,71.10
2019-05-26T09:15:58.545Z,72.50
2019-05-26T09:18:25.912Z,73.60
2019-05-26T09:20:53.041Z,72.10
2019-05-26T09:23:20.231Z,71.60
2019-05-26T09:25:47.607Z,71.70
2019-05-26T09:28:14.849Z,72.20
2019-05-26T09:30:41.980Z,74.70
2019-05-26T09:33:09.144Z,73.00
2019-05-26T09:35:36.254Z,71.70
2019-05-26T09:38:03.527Z,72.50
2019-05-26T09:40:30.813Z,70.80
2019-05-26T09:42:58.043Z,69.90
2019-05-26T09:45:25.378Z,70.50
2019-05-26T09:47:52.707Z,70.90
2019-05-26T09:50:20.654Z,71.80
2019-05-26T09:52:48.100Z,71.70
2019-05-26T09:55:15.938Z,71.10
2019-05-26T09:57:43.121Z,69.40
2019-05-26T10:00:15.867Z,69.10
2019-05-26T10:02:41.461Z,69.80
2019-05-26T10:05:08.785Z,71.30
2019-05-26T10:07:36.110Z,72.10
2019-05-26T10:10:04.362Z,69.30
2019-05-26T10:12:32.762Z,68.90
2019-05-26T10:15:00.008Z,68.10
2019-05-26T10:17:27.251Z,68.50
2019-05-26T10:19:54.487Z,68.60
2019-05-26T10:22:21.949Z,68.30
2019-05-26T10:24:49.525Z,68.50
2019-05-26T10:27:16.847Z,68.10
2019-05-26T10:29:44.044Z,68.20
2019-05-26T10:32:11.442Z,67.40
2019-05-26T10:34:38.963Z,68.20
2019-05-26T10:37:06.298Z,67.40
2019-05-26T10:39:33.573Z,68.00
2019-05-26T10:42:00.964Z,68.10
2019-05-26T10:44:33.265Z,68.10
2019-05-26T10:47:00.555Z,67.30
2019-05-26T10:49:29.745Z,68.60
2019-05-26T10:51:57.377Z,69.50
2019-05-26T10:54:24.835Z,71.30
2019-05-26T10:56:52.124Z,71.70
2019-05-26T10:59:19.618Z,71.70
2019-05-26T11:01:47.048Z,71.90
2019-05-26T11:04:14.754Z,70.20
2019-05-26T11:06:42.007Z,69.40
2019-05-26T11:09:09.451Z,69.10
2019-05-26T11:11:36.730Z,70.00
2019-05-26T11:14:04.657Z,69.80
2019-05-26T11:16:32.323Z,69.80
2019-05-26T11:18:59.562Z,70.90
2019-05-26T11:21:26.957Z,70.10
2019-05-26T11:23:54.376Z,69.00
2019-05-26T11:26:21.751Z,69.90
2019-05-26T11:28:48.840Z,69.50
2019-05-26T11:31:16.229Z,69.10
2019-05-26T11:33:43.579Z,70.90
2019-05-26T11:36:10.961Z,71.90
2019-05-26T11:38:38.176Z,72.50
2019-05-26T11:41:05.433Z,72.50
2019-05-26T11:43:32.697Z,71.80
2019-05-26T11:46:00.033Z,72.80
2019-05-26T11:48:27.116Z,73.10
2019-05-26T11:50:54.402Z,72.20
2019-05-26T11:53:21.665Z,72.30
2019-05-26T11:55:50.404Z,71.20
2019-05-26T11:58:17.799Z,71.40
2019-05-26T12:00:45.056Z,70.00
2019-05-26T12:03:12.429Z,70.30
2019-05-26T12:05:39.656Z,69.60
2019-05-26T12:08:06.872Z,70.10
2019-05-26T12:10:34.530Z,69.70
2019-05-26T12:13:02.022Z,71.30
2019-05-26T12:15:29.357Z,71.20
2019-05-26T12:17:56.557Z,70.90
2019-05-26T12:20:24.226Z,70.60
2019-05-26T12:22:51.486Z,70.50
2019-05-26T12:25:19.147Z,70.50
2019-05-26T12:27:46.374Z,70.10
2019-05-26T12:30:14.261Z,71.00
2019-05-26T12:32:41.857Z,70.30
2019-05-26T12:35:09.790Z,70.90
2019-05-26T12:37:37.351Z,71.10
2019-05-26T12:40:05.365Z,70.90
2019-05-26T12:42:33.877Z,69.70
2019-05-26T12:45:01.111Z,68.80
2019-05-26T12:47:28.683Z,70.40
2019-05-26T12:49:55.948Z,71.50
2019-05-26T12:52:23.629Z,69.90
2019-05-26T12:54:51.038Z,69.60
2019-05-26T12:57:18.396Z,68.00
2019-05-26T12:59:46.262Z,68.60
2019-05-26T13:02:13.685Z,68.70
2019-05-26T13:04:41.020Z,68.70
2019-05-26T13:07:08.217Z,68.00
2019-05-26T13:09:35.419Z,66.90
2019-05-26T13:12:02.728Z,67.60
2019-05-26T13:14:30.080Z,66.00
2019-05-26T13:16:57.343Z,66.80
2019-05-26T13:19:24.582Z,65.80
2019-05-26T13:21:52.213Z,66.30
2019-05-26T13:24:19.572Z,66.80
2019-05-26T13:26:47.011Z,68.30
2019-05-26T13:29:14.673Z,69.60
2019-05-26T13:31:41.888Z,68.30
2019-05-26T13:34:09.365Z,67.60
2019-05-26T13:36:36.630Z,66.90
2019-05-26T13:39:06.507Z,67.20
2019-05-26T13:41:33.824Z,67.70
2019-05-26T13:44:01.226Z,67.20
2019-05-26T13:46:28.661Z,67.90
2019-05-26T13:48:56.015Z,67.10
2019-05-26T13:51:23.389Z,67.10
2019-05-26T13:53:50.734Z,67.00
2019-05-26T13:56:18.036Z,66.10
2019-05-26T13:58:45.270Z,67.00
2019-05-26T14:01:12.560Z,66.70
2019-05-26T14:03:40.030Z,67.60
2019-05-26T14:06:07.419Z,66.10
2019-05-26T14:08:34.767Z,66.10
2019-05-26T14:11:02.126Z,67.70
2019-05-26T14:13:29.481Z,67.90
2019-05-26T14:15:58.331Z,68.60
2019-05-26T14:18:27.036Z,67.40
2019-05-26T14:20:54.308Z,68.10
2019-05-26T14:23:21.791Z,67.70
2019-05-26T14:25:49.367Z,67.80
2019-05-26T14:28:16.706Z,67.90
2019-05-26T14:30:43.925Z,68.00
2019-05-26T14:33:11.695Z,67.60
2019-05-26T14:35:38.919Z,67.30
2019-05-26T14:38:06.290Z,66.60
2019-05-26T14:40:33.688Z,66.70
2019-05-26T14:43:01.018Z,66.00
2019-05-26T14:45:28.685Z,66.00
2019-05-26T14:47:57.285Z,65.60
2019-05-26T14:50:24.698Z,65.60
2019-05-26T14:52:51.957Z,64.20
2019-05-26T14:55:22.924Z,64.50
2019-05-26T14:57:50.531Z,63.90
2019-05-26T15:00:22.968Z,64.90
2019-05-26T15:03:06.243Z,64.30
2019-05-26T15:05:35.901Z,63.50
2019-05-26T15:08:03.708Z,63.60
2019-05-26T15:10:31.569Z,63.50
2019-05-26T15:12:59.736Z,62.10
2019-05-26T15:15:27.166Z,62.50
2019-05-26T15:17:58.226Z,60.90
2019-05-26T15:20:25.959Z,61.50
2019-05-26T15:22:53.290Z,61.80
2019-05-26T15:25:20.868Z,62.50
2019-05-26T15:27:48.258Z,61.20
2019-05-26T15:30:15.963Z,61.20
2019-05-26T15:32:43.153Z,61.20
2019-05-26T15:35:11.063Z,60.70
2019-05-26T15:37:38.529Z,61.30
2019-05-26T15:40:06.658Z,60.80
2019-05-26T15:42:34.223Z,59.90
2019-05-26T15:45:01.962Z,60.40
2019-05-26T15:47:29.611Z,59.70
2019-05-26T15:49:56.806Z,59.40
2019-05-26T15:52:24.134Z,58.70
2019-05-26T15:54:51.621Z,58.40
2019-05-26T15:57:19.157Z,58.50
2019-05-26T15:59:46.600Z,57.60
2019-05-26T16:02:14.185Z,57.50
2019-05-26T16:04:41.419Z,56.10
2019-05-26T16:07:08.628Z,56.30
2019-05-26T16:09:35.907Z,55.10
2019-05-26T16:12:03.572Z,54.60
2019-05-26T16:14:32.012Z,54.50
2019-05-26T16:16:59.265Z,53.50
2019-05-26T16:19:26.576Z,53.30
2019-05-26T16:21:53.846Z,53.10
2019-05-26T16:24:21.256Z,53.20
2019-05-26T16:26:48.626Z,53.60
2019-05-26T16:29:17.036Z,54.20
2019-05-26T16:31:44.293Z,54.50
2019-05-26T16:34:12.504Z,54.30
2019-05-26T16:36:39.924Z,54.30
2019-05-26T16:39:07.639Z,54.90
2019-05-26T16:41:34.736Z,54.80
2019-05-26T16:44:01.969Z,55.60
2019-05-26T16:46:29.410Z,56.20
2019-05-26T16:48:56.967Z,57.20
2019-05-26T16:51:24.336Z,57.80
2019-05-26T16:53:51.845Z,57.50
2019-05-26T16:56:19.545Z,58.50
2019-05-26T16:58:48.258Z,59.30
2019-05-26T17:01:15.618Z,59.60
2019-05-26T17:03:43.204Z,60.00
2019-05-26T17:06:10.533Z,59.60
2019-05-26T17:08:37.812Z,59.80
2019-05-26T17:11:05.347Z,60.40
2019-05-26T17:13:33.251Z,61.10
2019-05-26T17:16:00.701Z,61.30
2019-05-26T17:18:28.056Z,61.20
2019-05-26T17:20:55.440Z,61.50
2019-05-26T17:23:23.011Z,62.20
2019-05-26T17:25:50.338Z,62.60
2019-05-26T17:28:17.517Z,61.90
2019-05-26T17:30:45.061Z,61.70
2019-05-26T17:33:12.443Z,61.50
2019-05-26T17:35:39.770Z,61.30
2019-05-26T17:38:07.142Z,61.60
2019-05-26T17:40:34.884Z,61.70
2019-05-26T17:43:02.198Z,61.90
2019-05-26T17:45:29.686Z,62.20
2019-05-26T17:47:57.235Z,62.70
2019-05-26T17:50:24.558Z,63.10
2019-05-26T17:52:52.031Z,63.30
2019-05-26T17:55:19.679Z,63.50
2019-05-26T17:57:50.580Z,63.50
2019-05-26T18:00:18.232Z,64.10
2019-05-26T18:02:45.520Z,63.70
2019-05-26T18:05:12.972Z,64.70
2019-05-26T18:07:40.466Z,64.70
2019-05-26T18:10:09.984Z,64.50
2019-05-26T18:12:39.618Z,63.90
2019-05-26T18:15:07.309Z,64.70
2019-05-26T18:17:46.486Z,64.80
2019-05-26T18:20:04.453Z,65.00
2019-05-26T18:22:31.959Z,65.60
2019-05-26T18:24:59.673Z,65.70
2019-05-26T18:27:27.287Z,65.80
2019-05-26T18:29:54.638Z,65.50
2019-05-26T18:32:24.950Z,65.70
2019-05-26T18:34:52.772Z,66.20
2019-05-26T18:37:20.017Z,66.10
2019-05-26T18:39:47.372Z,66.20
2019-05-26T18:42:14.485Z,66.60
2019-05-26T18:44:46.288Z,66.80
2019-05-26T18:47:16.531Z,67.30
2019-05-26T18:49:43.914Z,67.50
2019-05-26T18:52:11.827Z,67.70
2019-05-26T18:54:39.434Z,67.40
2019-05-26T18:57:09.730Z,67.70
2019-05-26T18:59:37.111Z,68.20
2019-05-26T19:02:05.330Z,68.20
2019-05-26T19:04:32.593Z,68.80
2019-05-26T19:06:59.967Z,69.20
2019-05-26T19:09:27.349Z,69.20
2019-05-26T19:11:54.776Z,68.80
2019-05-26T19:14:22.018Z,69.30
2019-05-26T19:16:49.355Z,69.50
2019-05-26T19:19:16.738Z,70.20
2019-05-26T19:21:44.261Z,70.10
2019-05-26T19:24:12.074Z,70.40
2019-05-26T19:26:39.903Z,71.20
2019-05-26T19:29:07.298Z,71.40
2019-05-26T19:31:34.505Z,72.80
2019-05-26T19:34:01.954Z,71.50
2019-05-26T19:36:29.346Z,71.00
2019-05-26T19:38:56.703Z,72.30
2019-05-26T19:41:23.978Z,72.90
2019-05-26T19:43:51.469Z,73.00
2019-05-26T19:46:18.905Z,73.80
2019-05-26T19:48:46.110Z,74.20
2019-05-26T19:51:13.633Z,74.60
2019-05-26T19:53:40.943Z,74.40
2019-05-26T19:56:08.376Z,74.20
2019-05-26T19:58:35.944Z,74.30
2019-05-26T20:01:03.341Z,75.60
2019-05-26T20:03:30.576Z,75.70
2019-05-26T20:05:57.994Z,76.30
2019-05-26T20:08:25.433Z,76.50
2019-05-26T20:10:52.850Z,77.20
2019-05-26T20:13:20.375Z,77.00
2019-05-26T20:15:47.770Z,77.70
2019-05-26T20:18:15.355Z,78.00
2019-05-26T20:20:43.056Z,78.30
2019-05-26T20:23:10.562Z,78.70
2019-05-26T20:25:37.852Z,78.90
2019-05-26T20:28:05.385Z,78.90
2019-05-26T20:30:32.909Z,79.10
2019-05-26T20:33:00.700Z,79.20
2019-05-26T20:35:28.235Z,79.40
2019-05-26T20:37:55.625Z,79.70
2019-05-26T20:40:23.071Z,80.10
2019-05-26T20:42:50.355Z,80.10
2019-05-26T20:45:17.949Z,80.50
2019-05-26T20:47:45.234Z,80.50
2019-05-26T20:50:28.001Z,80.20
2019-05-26T20:52:42.790Z,80.60
2019-05-26T20:55:10.458Z,80.80
2019-05-26T20:57:38.159Z,80.90
2019-05-26T21:00:06.474Z,81.10
2019-05-26T21:02:33.865Z,81.10
2019-05-26T21:05:01.665Z,81.20
2019-05-26T21:07:29.507Z,81.50
2019-05-26T21:09:56.768Z,81.60
2019-05-26T21:12:24.128Z,82.00
2019-05-26T21:14:51.601Z,82.10
2019-05-26T21:17:19.192Z,82.50
2019-05-26T21:19:47.038Z,82.40
2019-05-26T21:22:14.409Z,82.50
2019-05-26T21:24:41.912Z,82.90
2019-05-26T21:27:09.364Z,83.00
2019-05-26T21:29:36.835Z,82.90
2019-05-26T21:32:04.162Z,83.20
2019-05-26T21:34:31.655Z,83.20
2019-05-26T21:36:59.078Z,83.40
2019-05-26T21:39:26.313Z,83.60
2019-05-26T21:41:53.822Z,83.50
2019-05-26T21:44:21.176Z,84.00
2019-05-26T21:46:48.608Z,84.50
2019-05-26T21:49:16.340Z,84.60
2019-05-26T21:51:43.891Z,84.80
2019-05-26T21:54:11.245Z,84.70
2019-05-26T21:56:38.819Z,84.90
2019-05-26T21:59:06.130Z,85.00
2019-05-26T22:01:34.182Z,85.20
2019-05-26T22:04:01.439Z,85.20
2019-05-26T22:06:29.000Z,85.30
2019-05-26T22:08:57.529Z,85.30
2019-05-26T22:11:24.658Z,85.30
2019-05-26T22:13:52.055Z,85.20
2019-05-26T22:16:19.420Z,85.40
2019-05-26T22:18:46.691Z,85.40
2019-05-26T22:21:13.907Z,85.70
2019-05-26T22:23:41.301Z,85.60
2019-05-26T22:26:08.723Z,86.00
2019-05-26T22:28:36.207Z,86.10
2019-05-26T22:31:03.592Z,86.00
2019-05-26T22:33:30.783Z,86.30
2019-05-26T22:35:57.995Z,86.20
2019-05-26T22:38:25.457Z,86.60
2019-05-26T22:40:52.819Z,86.40
2019-05-26T22:43:20.090Z,86.60
2019-05-26T22:45:47.329Z,86.50
2019-05-26T22:48:14.750Z,86.80
2019-05-26T22:50:42.143Z,86.80
2019-05-26T22:53:09.764Z,86.90
2019-05-26T22:55:37.281Z,87.10
2019-05-26T22:58:04.866Z,86.70
2019-05-26T23:00:32.390Z,87.10
2019-05-26T23:02:59.748Z,86.90
2019-05-26T23:05:27.199Z,87.10
2019-05-26T23:07:54.518Z,87.00
2019-05-26T23:10:21.983Z,87.40
2019-05-26T23:12:49.240Z,87.30
2019-05-26T23:15:16.876Z,87.30
2019-05-26T23:17:44.525Z,87.50
2019-05-26T23:20:11.908Z,87.60
2019-05-26T23:22:39.300Z,87.60
2019-05-26T23:25:07.073Z,87.80
2019-05-26T23:27:34.508Z,87.80
2019-05-26T23:30:01.780Z,87.40
2019-05-26T23:32:29.193Z,87.70
2019-05-26T23:34:56.414Z,87.80
2019-05-26T23:37:24.489Z,87.90
2019-05-26T23:39:53.210Z,87.60
2019-05-26T23:42:20.609Z,87.70
2019-05-26T23:44:47.694Z,87.60
2019-05-26T23:47:14.930Z,87.90
2019-05-26T23:49:42.321Z,88.00
2019-05-26T23:52:09.612Z,87.70
2019-05-26T23:54:37.128Z,87.80
2019-05-26T23:57:04.423Z,87.50
2019-05-26T23:59:31.854Z,87.60
